createdAt,value
2018-07-08T00:01:41.325Z,1.10
2018-07-08T00:04:10.380Z,1.30
2018-07-08T00:06:39.529Z,1.23
2018-07-08T00:09:08.591Z,1.20
2018-07-08T00:11:37.671Z,1.20
2018-07-08T00:14:06.720Z,1.03
2018-07-08T00:16:35.790Z,1.63
2018-07-08T00:19:04.919Z,1.60
2018-07-08T00:21:34.008Z,1.50
2018-07-08T00:24:03.076Z,1.77
2018-07-08T00:26:32.160Z,1.67
2018-07-08T00:29:01.207Z,1.83
2018-07-08T00:31:30.275Z,1.30
2018-07-08T00:33:59.340Z,0.97
2018-07-08T00:36:28.407Z,1.20
2018-07-08T00:38:57.451Z,1.17
2018-07-08T00:41:26.511Z,1.33
2018-07-08T00:43:55.312Z,1.30
2018-07-08T00:46:24.012Z,1.43
2018-07-08T00:48:52.940Z,1.30
2018-07-08T00:51:22.008Z,1.50
2018-07-08T00:57:00.972Z,1.23
2018-07-08T01:02:21.483Z,1.20
2018-07-08T01:04:50.533Z,1.03
2018-07-08T01:07:19.604Z,1.20
2018-07-08T01:09:48.656Z,1.30
2018-07-08T01:12:17.719Z,1.27
2018-07-08T01:14:46.773Z,1.33
2018-07-08T01:17:15.580Z,1.60
2018-07-08T01:19:44.288Z,1.40
2018-07-08T01:22:13.231Z,1.33
2018-07-08T01:24:42.279Z,1.50
2018-07-08T01:27:11.352Z,1.17
2018-07-08T01:29:40.404Z,1.27
2018-07-08T01:32:09.471Z,1.30
2018-07-08T01:34:38.529Z,1.10
2018-07-08T01:37:07.604Z,1.30
2018-07-08T01:39:36.439Z,1.83
2018-07-08T01:42:05.384Z,1.33
2018-07-08T01:44:34.423Z,1.30
2018-07-08T01:47:03.496Z,1.37
2018-07-08T01:49:32.550Z,1.40
2018-07-08T01:52:01.628Z,1.37
2018-07-08T01:54:30.676Z,1.20
2018-07-08T01:56:59.487Z,1.27
2018-07-08T01:59:28.190Z,1.30
2018-07-08T02:01:57.283Z,1.67
2018-07-08T02:04:26.331Z,1.30
2018-07-08T02:06:55.462Z,1.50
2018-07-08T02:09:24.239Z,1.60
2018-07-08T02:11:53.184Z,1.67
2018-07-08T02:14:22.227Z,1.53
2018-07-08T02:16:51.776Z,1.60
2018-07-08T02:19:20.964Z,1.67
2018-07-08T02:21:50.032Z,1.70
2018-07-08T02:24:19.091Z,2.00
2018-07-08T02:26:48.443Z,2.50
2018-07-08T02:29:17.496Z,2.00
2018-07-08T02:31:46.568Z,2.30
2018-07-08T02:34:15.620Z,2.40
2018-07-08T02:36:44.688Z,3.60
2018-07-08T02:39:13.736Z,3.90
2018-07-08T02:41:43.241Z,3.83
2018-07-08T02:44:12.296Z,3.60
2018-07-08T02:46:41.156Z,3.70
2018-07-08T02:49:10.171Z,3.53
2018-07-08T02:51:39.263Z,3.67
2018-07-08T02:54:08.321Z,3.33
2018-07-08T02:56:37.393Z,2.80
2018-07-08T02:59:06.436Z,2.20
2018-07-08T03:01:35.503Z,2.63
2018-07-08T03:04:04.556Z,2.13
2018-07-08T03:06:33.644Z,2.03
2018-07-08T03:09:02.738Z,2.07
2018-07-08T03:11:31.988Z,1.63
2018-07-08T03:14:01.029Z,1.77
2018-07-08T03:16:30.115Z,1.87
2018-07-08T03:18:59.272Z,1.90
2018-07-08T03:21:28.342Z,2.33
2018-07-08T03:23:57.900Z,1.80
2018-07-08T03:26:26.996Z,2.10
2018-07-08T03:28:56.068Z,1.67
2018-07-08T03:31:25.116Z,2.20
2018-07-08T03:33:54.192Z,2.30
2018-07-08T03:36:23.240Z,2.10
2018-07-08T03:38:52.316Z,2.20
2018-07-08T03:44:30.875Z,2.13
2018-07-08T03:46:59.837Z,1.93
2018-07-08T03:49:28.891Z,2.13
2018-07-08T03:51:57.967Z,2.53
2018-07-08T03:54:31.501Z,2.17
2018-07-08T03:57:00.577Z,2.30
2018-07-08T03:59:29.722Z,2.23
2018-07-08T04:01:58.803Z,2.30
2018-07-08T04:04:27.855Z,2.47
2018-07-08T04:06:56.702Z,2.57
2018-07-08T04:09:25.615Z,2.53
2018-07-08T04:11:54.675Z,2.77
2018-07-08T04:14:23.720Z,2.30
2018-07-08T04:16:52.800Z,2.23
2018-07-08T04:19:21.848Z,2.20
2018-07-08T04:21:50.888Z,2.27
2018-07-08T04:24:19.947Z,2.57
2018-07-08T04:26:49.016Z,2.13
2018-07-08T04:29:18.075Z,2.70
2018-07-08T04:31:47.135Z,2.43
2018-07-08T04:34:16.184Z,2.50
2018-07-08T04:36:45.021Z,2.80
2018-07-08T04:39:13.963Z,2.67
2018-07-08T04:41:42.755Z,2.30
2018-07-08T04:44:11.699Z,2.33
2018-07-08T04:46:40.744Z,3.03
2018-07-08T04:49:09.811Z,2.80
2018-07-08T04:51:38.745Z,2.73
2018-07-08T04:54:07.689Z,2.50
2018-07-08T04:56:36.727Z,2.23
2018-07-08T04:59:05.535Z,2.83
2018-07-08T05:01:34.247Z,2.60
2018-07-08T05:04:03.180Z,2.90
2018-07-08T05:06:32.257Z,2.40
2018-07-08T05:09:01.336Z,2.47
2018-07-08T05:11:30.367Z,2.30
2018-07-08T05:13:59.427Z,2.30
2018-07-08T05:16:28.467Z,2.60
2018-07-08T05:18:57.288Z,2.93
2018-07-08T05:21:26.204Z,2.60
2018-07-08T05:23:55.271Z,2.70
2018-07-08T05:26:24.340Z,2.20
2018-07-08T05:28:53.400Z,2.67
2018-07-08T05:31:22.440Z,2.77
2018-07-08T05:33:51.247Z,2.33
2018-07-08T05:36:19.954Z,2.80
2018-07-08T05:38:48.891Z,3.03
2018-07-08T05:41:17.928Z,2.70
2018-07-08T05:43:46.995Z,2.80
2018-07-08T05:46:15.807Z,2.40
2018-07-08T05:48:44.490Z,3.13
2018-07-08T05:51:13.199Z,3.47
2018-07-08T05:53:42.132Z,3.07
2018-07-08T05:56:11.384Z,2.90
2018-07-08T05:58:40.459Z,2.60
2018-07-08T06:01:09.603Z,3.77
2018-07-08T06:03:38.795Z,3.60
2018-07-08T06:06:08.135Z,3.30
2018-07-08T06:08:37.200Z,3.50
2018-07-08T06:11:06.432Z,3.10
2018-07-08T06:13:35.247Z,3.27
2018-07-08T06:16:04.163Z,3.03
2018-07-08T06:18:33.223Z,3.30
2018-07-08T06:21:02.017Z,3.20
2018-07-08T06:23:30.957Z,3.20
2018-07-08T06:26:00.039Z,2.87
2018-07-08T06:28:29.081Z,3.07
2018-07-08T06:30:58.120Z,2.97
2018-07-08T06:33:27.176Z,3.33
2018-07-08T06:35:56.216Z,3.10
2018-07-08T06:38:25.284Z,3.20
2018-07-08T06:40:54.336Z,2.90
2018-07-08T06:43:23.396Z,2.93
2018-07-08T06:45:52.436Z,3.10
2018-07-08T06:48:21.503Z,3.13
2018-07-08T06:50:50.583Z,2.70
2018-07-08T06:53:19.660Z,2.93
2018-07-08T06:55:48.707Z,3.10
2018-07-08T06:58:17.775Z,2.90
2018-07-08T07:00:46.816Z,2.60
2018-07-08T07:03:15.911Z,3.30
2018-07-08T07:05:44.994Z,3.00
2018-07-08T07:08:14.057Z,2.80
2018-07-08T07:10:43.111Z,2.97
2018-07-08T07:13:11.903Z,3.07
2018-07-08T07:15:40.844Z,2.93
2018-07-08T07:18:09.876Z,3.27
2018-07-08T07:20:38.947Z,2.90
2018-07-08T07:23:08.054Z,3.37
2018-07-08T07:25:37.236Z,3.20
2018-07-08T07:28:06.289Z,3.13
2018-07-08T07:30:35.349Z,3.37
2018-07-08T07:33:04.391Z,2.37
2018-07-08T07:35:33.456Z,3.03
2018-07-08T07:38:02.512Z,3.10
2018-07-08T07:40:31.575Z,2.80
2018-07-08T07:43:00.608Z,2.93
2018-07-08T07:45:29.676Z,3.10
2018-07-08T07:47:58.725Z,2.40
2018-07-08T07:50:27.575Z,2.90
2018-07-08T07:52:56.492Z,3.10
2018-07-08T07:55:25.555Z,2.87
2018-07-08T07:57:54.599Z,2.90
2018-07-08T08:00:23.670Z,3.27
2018-07-08T08:02:52.791Z,2.90
2018-07-08T08:05:21.892Z,2.47
2018-07-08T08:07:50.947Z,2.70
2018-07-08T08:10:20.251Z,2.90
2018-07-08T08:12:49.300Z,3.10
2018-07-08T08:15:18.462Z,2.93
2018-07-08T08:17:47.531Z,3.23
2018-07-08T08:20:16.703Z,2.90
2018-07-08T08:22:45.500Z,3.20
2018-07-08T08:25:14.460Z,3.00
2018-07-08T08:27:43.544Z,3.33
2018-07-08T08:30:12.619Z,2.37
2018-07-08T08:32:41.743Z,2.90
2018-07-08T08:35:14.083Z,3.57
2018-07-08T08:37:44.183Z,3.00
2018-07-08T08:40:14.223Z,2.90
2018-07-08T08:42:43.512Z,3.00
2018-07-08T08:45:15.588Z,2.63
2018-07-08T08:47:44.661Z,2.90
2018-07-08T08:50:14.152Z,3.13
2018-07-08T08:52:43.368Z,2.80
2018-07-08T08:55:13.000Z,2.60
2018-07-08T08:57:42.075Z,3.03
2018-07-08T09:00:18.568Z,3.00
2018-07-08T09:02:47.652Z,3.17
2018-07-08T09:05:16.755Z,3.00
2018-07-08T09:07:45.816Z,3.63
2018-07-08T09:10:14.904Z,3.53
2018-07-08T09:12:43.699Z,3.40
2018-07-08T09:15:12.427Z,3.57
2018-07-08T09:17:41.366Z,2.77
2018-07-08T09:20:10.200Z,3.37
2018-07-08T09:22:39.151Z,3.17
2018-07-08T09:25:07.986Z,3.30
2018-07-08T09:27:36.997Z,3.30
2018-07-08T09:30:06.257Z,3.23
2018-07-08T09:32:35.340Z,3.47
2018-07-08T09:35:04.420Z,3.30
2018-07-08T09:37:33.288Z,3.70
2018-07-08T09:40:02.244Z,2.90
2018-07-08T09:42:31.305Z,3.33
2018-07-08T09:45:00.139Z,2.73
2018-07-08T09:47:29.076Z,3.17
2018-07-08T09:49:58.164Z,3.20
2018-07-08T09:52:27.268Z,3.27
2018-07-08T09:54:56.556Z,3.00
2018-07-08T09:57:26.104Z,2.83
2018-07-08T09:59:54.839Z,3.00
2018-07-08T10:02:23.772Z,3.47
2018-07-08T10:04:52.664Z,3.33
2018-07-08T10:07:21.604Z,3.20
2018-07-08T10:09:50.684Z,3.37
2018-07-08T10:12:19.749Z,3.23
2018-07-08T10:14:48.848Z,3.57
2018-07-08T10:17:17.951Z,3.77
2018-07-08T10:19:47.410Z,3.40
2018-07-08T10:22:16.360Z,3.20
2018-07-08T10:24:45.436Z,3.60
2018-07-08T10:28:18.593Z,3.53
2018-07-08T10:30:47.673Z,3.70
2018-07-08T10:33:16.739Z,3.63
2018-07-08T10:36:02.771Z,3.47
2018-07-08T10:38:32.151Z,3.80
2018-07-08T10:41:01.241Z,3.90
2018-07-08T10:43:30.461Z,4.20
2018-07-08T10:45:59.711Z,3.20
2018-07-08T10:48:28.775Z,3.80
2018-07-08T10:50:57.852Z,3.90
2018-07-08T10:53:26.911Z,3.53
2018-07-08T10:55:55.992Z,3.87
2018-07-08T10:58:25.044Z,3.93
2018-07-08T11:00:54.120Z,3.80
2018-07-08T11:03:23.220Z,4.27
2018-07-08T11:05:52.299Z,4.37
2018-07-08T11:08:21.340Z,4.30
2018-07-08T11:10:50.456Z,4.40
2018-07-08T11:13:19.634Z,4.30
2018-07-08T11:15:48.696Z,4.70
2018-07-08T11:18:17.740Z,4.07
2018-07-08T11:20:46.831Z,3.90
2018-07-08T11:23:15.880Z,4.30
2018-07-08T11:25:44.944Z,4.20
2018-07-08T11:28:13.995Z,3.70
2018-07-08T11:30:43.064Z,4.30
2018-07-08T11:33:12.112Z,4.00
2018-07-08T11:35:41.184Z,4.10
2018-07-08T11:38:10.231Z,4.03
2018-07-08T11:40:39.179Z,3.80
2018-07-08T11:43:08.944Z,3.97
2018-07-08T11:45:38.012Z,4.10
2018-07-08T11:48:07.075Z,4.40
2018-07-08T11:50:36.144Z,4.17
2018-07-08T11:53:05.184Z,4.60
2018-07-08T11:55:34.244Z,4.70
2018-07-08T11:58:03.279Z,3.70
2018-07-08T12:00:32.347Z,3.60
2018-07-08T12:03:01.414Z,3.87
2018-07-08T12:05:30.512Z,4.13
2018-07-08T12:07:59.596Z,4.33
2018-07-08T12:10:28.659Z,4.40
2018-07-08T12:12:57.736Z,4.50
2018-07-08T12:15:26.796Z,4.40
2018-07-08T12:17:55.873Z,4.40
2018-07-08T12:20:24.663Z,4.13
2018-07-08T12:22:53.620Z,4.53
2018-07-08T12:25:22.732Z,4.40
2018-07-08T12:27:51.800Z,4.20
2018-07-08T12:30:20.856Z,4.00
2018-07-08T12:32:49.931Z,4.50
2018-07-08T12:35:18.771Z,4.07
2018-07-08T12:37:47.724Z,4.00
2018-07-08T12:40:16.799Z,3.90
2018-07-08T12:42:45.876Z,4.20
2018-07-08T12:45:14.959Z,4.70
2018-07-08T12:47:44.044Z,4.17
2018-07-08T12:50:13.103Z,4.30
2018-07-08T12:52:41.923Z,4.10
2018-07-08T12:55:10.859Z,4.20
2018-07-08T12:57:39.964Z,4.13
2018-07-08T13:00:09.067Z,3.77
2018-07-08T13:02:38.189Z,3.80
2018-07-08T13:05:07.055Z,3.70
2018-07-08T13:07:36.012Z,3.30
2018-07-08T13:10:05.104Z,3.90
2018-07-08T13:12:34.184Z,3.50
2018-07-08T13:15:03.248Z,3.53
2018-07-08T13:17:32.091Z,3.10
2018-07-08T13:20:01.054Z,3.97
2018-07-08T13:22:30.231Z,3.50
2018-07-08T13:24:59.059Z,3.33
2018-07-08T13:27:28.016Z,3.47
2018-07-08T13:29:56.967Z,3.23
2018-07-08T13:32:25.987Z,3.37
2018-07-08T13:34:55.016Z,2.83
2018-07-08T13:37:24.103Z,2.90
2018-07-08T13:39:52.928Z,3.00
2018-07-08T13:42:21.895Z,3.07
2018-07-08T13:44:50.960Z,3.50
2018-07-08T13:47:20.085Z,3.10
2018-07-08T13:49:49.119Z,2.80
2018-07-08T13:52:18.196Z,2.87
2018-07-08T13:54:47.252Z,2.90
2018-07-08T13:57:16.112Z,3.10
2018-07-08T13:59:45.045Z,2.87
2018-07-08T14:02:14.111Z,2.42
2018-07-08T14:04:43.176Z,3.00
2018-07-08T14:07:12.272Z,2.90
2018-07-08T14:09:41.332Z,2.87
2018-07-08T14:12:10.158Z,3.13
2018-07-08T14:14:39.105Z,2.70
2018-07-08T14:17:07.963Z,3.00
2018-07-08T14:19:36.896Z,3.00
2018-07-08T14:22:05.715Z,2.93
2018-07-08T14:24:34.651Z,3.03
2018-07-08T14:27:04.225Z,2.90
2018-07-08T14:29:33.629Z,2.87
2018-07-08T14:32:02.708Z,2.90
2018-07-08T14:34:31.836Z,2.90
2018-07-08T14:37:00.936Z,3.00
2018-07-08T14:39:29.996Z,3.00
2018-07-08T14:41:59.079Z,3.20
2018-07-08T14:44:28.233Z,3.05
2018-07-08T14:46:57.411Z,3.00
2018-07-08T14:49:26.475Z,3.05
2018-07-08T14:51:55.550Z,3.25
2018-07-08T14:54:24.351Z,2.60
2018-07-08T14:56:53.304Z,3.00
2018-07-08T14:59:22.368Z,2.85
2018-07-08T15:01:51.420Z,2.52
2018-07-08T15:04:20.491Z,2.65
2018-07-08T15:06:49.575Z,2.67
2018-07-08T15:09:18.656Z,2.77
2018-07-08T15:11:47.712Z,2.70
2018-07-08T15:14:16.792Z,3.02
2018-07-08T15:16:45.851Z,2.80
2018-07-08T15:19:14.932Z,3.00
2018-07-08T15:21:44.008Z,2.80
2018-07-08T15:24:13.092Z,2.98
2018-07-08T15:26:41.909Z,2.75
2018-07-08T15:29:11.230Z,2.80
2018-07-08T15:31:40.164Z,3.05
2018-07-08T15:34:09.247Z,2.83
2018-07-08T15:36:38.338Z,2.90
2018-07-08T15:39:08.449Z,3.05
2018-07-08T15:41:37.519Z,2.80
2018-07-08T15:44:06.616Z,2.60
2018-07-08T15:46:35.679Z,2.47
2018-07-08T15:49:04.507Z,2.72
2018-07-08T15:51:33.195Z,2.60
2018-07-08T15:54:02.208Z,2.75
2018-07-08T15:56:31.341Z,2.50
2018-07-08T15:59:00.428Z,2.70
2018-07-08T16:01:29.496Z,2.77
2018-07-08T16:03:58.574Z,2.80
2018-07-08T16:06:27.664Z,2.70
2018-07-08T16:08:56.740Z,2.62
2018-07-08T16:11:25.907Z,2.75
2018-07-08T16:13:54.988Z,2.80
2018-07-08T16:16:24.052Z,2.37
2018-07-08T16:18:53.190Z,2.77
2018-07-08T16:21:22.232Z,2.70
2018-07-08T16:23:51.537Z,3.35
2018-07-08T16:26:20.604Z,2.80
2018-07-08T16:28:49.684Z,3.40
2018-07-08T16:31:18.544Z,2.85
2018-07-08T16:33:47.500Z,3.10
2018-07-08T16:36:16.323Z,3.00
2018-07-08T16:38:45.283Z,2.90
2018-07-08T16:41:14.086Z,2.85
2018-07-08T16:43:42.792Z,2.70
2018-07-08T16:46:11.972Z,2.60
2018-07-08T16:48:41.043Z,2.60
2018-07-08T16:51:09.844Z,2.90
2018-07-08T16:53:38.800Z,2.70
2018-07-08T16:56:07.945Z,2.50
2018-07-08T16:58:37.032Z,2.70
2018-07-08T17:01:05.835Z,2.98
2018-07-08T17:03:34.863Z,3.05
2018-07-08T17:06:03.996Z,2.77
2018-07-08T17:08:33.159Z,2.65
2018-07-08T17:11:02.237Z,2.83
2018-07-08T17:13:31.295Z,2.98
2018-07-08T17:16:00.083Z,2.72
2018-07-08T17:18:29.031Z,3.20
2018-07-08T17:20:58.079Z,2.75
2018-07-08T17:23:26.945Z,2.90
2018-07-08T17:25:55.872Z,2.80
2018-07-08T17:28:24.936Z,3.20
2018-07-08T17:30:53.986Z,3.05
2018-07-08T17:33:23.195Z,2.98
2018-07-08T17:35:52.124Z,3.12
2018-07-08T17:38:21.187Z,3.45
2018-07-08T17:40:50.265Z,3.30
2018-07-08T17:43:19.331Z,3.05
2018-07-08T17:45:48.203Z,3.10
2018-07-08T17:48:17.147Z,3.27
2018-07-08T17:50:46.191Z,2.92
2018-07-08T17:53:15.268Z,3.12
2018-07-08T17:55:44.633Z,2.98
2018-07-08T17:58:13.672Z,3.22
2018-07-08T18:00:42.773Z,2.75
2018-07-08T18:03:11.847Z,2.77
2018-07-08T18:05:40.936Z,3.22
2018-07-08T18:08:10.004Z,2.67
2018-07-08T18:10:39.088Z,2.83
2018-07-08T18:13:08.239Z,2.80
2018-07-08T18:15:37.640Z,2.70
2018-07-08T18:18:06.788Z,2.67
2018-07-08T18:20:35.607Z,3.08
2018-07-08T18:23:04.920Z,3.25
2018-07-08T18:25:34.204Z,2.95
2018-07-08T18:28:03.283Z,3.02
2018-07-08T18:30:33.035Z,3.10
2018-07-08T18:33:02.096Z,2.90
2018-07-08T18:35:31.211Z,3.52
2018-07-08T18:38:00.264Z,3.10
2018-07-08T18:40:29.340Z,2.83
2018-07-08T18:42:58.400Z,3.00
2018-07-08T18:45:27.477Z,2.62
2018-07-08T18:47:56.535Z,2.85
2018-07-08T18:50:25.616Z,2.80
2018-07-08T18:52:54.668Z,2.90
2018-07-08T18:55:23.756Z,3.17
2018-07-08T18:57:52.824Z,3.10
2018-07-08T19:00:21.703Z,3.30
2018-07-08T19:02:50.635Z,3.10
2018-07-08T19:05:19.731Z,3.27
2018-07-08T19:07:48.555Z,3.27
2018-07-08T19:10:17.508Z,3.30
2018-07-08T19:12:46.339Z,3.87
2018-07-08T19:15:15.288Z,3.67
2018-07-08T19:17:44.087Z,3.20
2018-07-08T19:20:13.116Z,3.60
2018-07-08T19:22:42.184Z,3.47
2018-07-08T19:25:11.339Z,3.50
2018-07-08T19:27:40.403Z,4.00
2018-07-08T19:30:09.540Z,3.70
2018-07-08T19:32:39.193Z,3.23
2018-07-08T19:35:08.275Z,3.20
2018-07-08T19:37:37.099Z,3.47
2018-07-08T19:40:06.055Z,3.37
2018-07-08T19:42:34.883Z,3.13
2018-07-08T19:45:03.844Z,3.53
2018-07-08T19:47:32.975Z,3.30
2018-07-08T19:50:02.006Z,3.20
2018-07-08T19:52:31.064Z,2.97
2018-07-08T19:55:00.143Z,3.17
2018-07-08T19:57:29.240Z,3.20
2018-07-08T19:59:58.319Z,2.87
2018-07-08T20:02:27.283Z,2.83
2018-07-08T20:04:57.055Z,2.90
2018-07-08T20:07:26.156Z,3.23
2018-07-08T20:09:55.211Z,2.93
2018-07-08T20:12:24.023Z,3.43
2018-07-08T20:14:52.752Z,3.30
2018-07-08T20:17:22.687Z,3.40
2018-07-08T20:19:51.499Z,3.13
2018-07-08T20:22:20.419Z,2.90
2018-07-08T20:24:49.475Z,3.20
2018-07-08T20:27:18.508Z,2.97
2018-07-08T20:29:47.568Z,2.87
2018-07-08T20:32:16.604Z,3.13
2018-07-08T20:34:45.689Z,3.10
2018-07-08T20:37:14.729Z,3.20
2018-07-08T20:39:43.799Z,2.80
2018-07-08T20:42:12.836Z,3.00
2018-07-08T20:44:41.904Z,3.00
2018-07-08T20:47:10.971Z,3.30
2018-07-08T20:49:40.033Z,3.30
2018-07-08T20:52:09.068Z,3.27
2018-07-08T20:54:38.112Z,3.23
2018-07-08T20:57:07.167Z,2.97
2018-07-08T20:59:36.288Z,3.37
2018-07-08T21:02:05.348Z,3.00
2018-07-08T21:04:34.391Z,3.23
2018-07-08T21:07:03.496Z,3.50
2018-07-08T21:09:32.556Z,3.20
2018-07-08T21:12:01.640Z,3.47
2018-07-08T21:14:30.692Z,3.10
2018-07-08T21:16:59.772Z,2.90
2018-07-08T21:19:29.900Z,2.80
2018-07-08T21:21:59.011Z,3.10
2018-07-08T21:24:27.811Z,3.07
2018-07-08T21:26:56.764Z,3.23
2018-07-08T21:29:25.827Z,3.40
2018-07-08T21:31:54.952Z,3.30
2018-07-08T21:34:24.017Z,3.40
2018-07-08T21:36:53.152Z,3.70
2018-07-08T21:39:22.200Z,3.27
2018-07-08T21:41:51.287Z,3.50
2018-07-08T21:44:20.346Z,3.13
2018-07-08T21:46:49.417Z,3.10
2018-07-08T21:49:18.451Z,3.37
2018-07-08T21:51:47.319Z,3.47
2018-07-08T21:54:16.228Z,3.40
2018-07-08T21:56:45.287Z,3.27
2018-07-08T21:59:14.327Z,3.30
2018-07-08T22:02:05.907Z,3.60
2018-07-08T22:04:35.032Z,3.17
2018-07-08T22:07:09.403Z,3.00
2018-07-08T22:09:38.676Z,3.30
2018-07-08T22:12:07.985Z,2.73
2018-07-08T22:14:36.780Z,2.80
2018-07-08T22:17:05.732Z,2.67
2018-07-08T22:19:34.792Z,2.87
2018-07-08T22:22:03.904Z,2.87
2018-07-08T22:24:32.978Z,2.80
2018-07-08T22:27:02.185Z,2.30
2018-07-08T22:29:31.268Z,2.30
2018-07-08T22:32:00.344Z,2.40
2018-07-08T22:34:29.400Z,2.40
2018-07-08T22:36:58.480Z,2.10
2018-07-08T22:39:27.581Z,2.10
2018-07-08T22:41:56.639Z,2.20
2018-07-08T22:44:25.815Z,2.00
2018-07-08T22:46:54.892Z,1.60
2018-07-08T22:49:23.956Z,1.83
2018-07-08T22:51:53.028Z,1.70
2018-07-08T22:54:22.084Z,1.33
2018-07-08T22:56:51.164Z,1.40
2018-07-08T22:59:20.215Z,1.53
2018-07-08T23:02:00.820Z,1.20
2018-07-08T23:04:29.876Z,1.60
2018-07-08T23:06:58.964Z,1.63
2018-07-08T23:09:27.761Z,1.20
2018-07-08T23:11:56.691Z,1.57
2018-07-08T23:14:25.736Z,1.37
2018-07-08T23:16:55.459Z,1.20
2018-07-08T23:19:24.376Z,1.33
2018-07-08T23:21:53.435Z,1.40
2018-07-08T23:24:22.219Z,1.20
2018-07-08T23:26:51.159Z,1.37
2018-07-08T23:29:20.208Z,1.10
2018-07-08T23:31:49.356Z,1.30
2018-07-08T23:34:18.327Z,1.37
2018-07-08T23:36:47.395Z,1.20
2018-07-08T23:39:16.756Z,1.30
2018-07-08T23:41:45.815Z,1.30
2018-07-08T23:44:14.848Z,1.00
2018-07-08T23:46:43.915Z,1.20
2018-07-08T23:49:12.956Z,1.10
2018-07-08T23:51:42.016Z,1.23
2018-07-08T23:54:11.062Z,1.30
2018-07-08T23:56:40.431Z,1.17
2018-07-08T23:59:09.472Z,1.00
